Time;durP1;ratioP1;P1;durP2;ratioP2;P2;SDS_P1;SDS_P2;PMS_P1;PMS_P2;Temp;Humidity;BMP_temperature;BMP_pressure;BME280_temperature;BME280_humidity;BME280_pressure;Samples;Min_cycle;Max_cycle;Signal;HPM_P1;HPM_P2
2022/09/16 03:00:10;;;;;;;1.30;1.15;;;23.40;47.80;;;;;;6066761;23;45748;31
2022/09/16 03:02:36;;;;;;;1.30;1.17;;;23.30;47.90;;;;;;4860694;28;45564;-64
2022/09/16 03:05:02;;;;;;;1.30;1.20;;;23.30;48.00;;;;;;4896802;28;45633;-67
2022/09/16 03:07:28;;;;;;;1.20;1.10;;;23.30;48.00;;;;;;4891216;28;44982;-65
2022/09/16 03:09:53;;;;;;;1.27;1.17;;;23.30;47.90;;;;;;4896301;29;45985;-65
2022/09/16 03:12:41;;;;;;;1.80;1.27;;;23.30;47.90;;;;;;4893400;28;44858;-65
2022/09/16 03:15:33;;;;;;;1.27;1.17;;;23.30;47.90;;;;;;4877832;28;45461;-65
2022/09/16 03:18:32;;;;;;;1.73;1.10;;;23.30;47.80;;;;;;4879365;29;44765;-65
2022/09/16 03:21:16;;;;;;;1.38;1.20;;;23.30;47.80;;;;;;4895365;28;45548;-65
2022/09/16 03:23:48;;;;;;;1.08;1.05;;;23.30;47.90;;;;;;4879366;29;45368;-65
2022/09/16 03:26:52;;;;;;;1.48;1.38;;;23.30;47.90;;;;;;4879028;29;44973;-66
2022/09/16 03:29:32;;;;;;;1.35;1.25;;;23.30;47.80;;;;;;4894280;28;45167;-64
2022/09/16 03:32:21;;;;;;;1.40;1.13;;;23.20;48.00;;;;;;4871732;29;45897;-65
2022/09/16 03:34:56;;;;;;;1.58;1.30;;;23.20;47.90;;;;;;4868946;29;45148;-65
2022/09/16 03:37:22;;;;;;;1.35;1.25;;;23.20;48.00;;;;;;4897821;28;45132;-65
2022/09/16 03:39:52;;;;;;;1.13;1.08;;;23.20;48.10;;;;;;4890302;28;45013;-65
2022/09/16 03:42:18;;;;;;;1.60;1.10;;;23.20;48.00;;;;;;4849691;29;48154;-65
2022/09/16 03:44:43;;;;;;;1.20;1.10;;;23.20;48.00;;;;;;4896857;28;45274;-65
2022/09/16 03:47:09;;;;;;;0.85;0.80;;;23.20;48.00;;;;;;4880092;29;45420;-65
2022/09/16 03:49:35;;;;;;;1.23;1.13;;;23.20;48.60;;;;;;4879639;29;45481;-65
2022/09/16 03:52:01;;;;;;;1.85;1.30;;;23.20;48.00;;;;;;4906837;28;45165;-65
2022/09/16 03:54:26;;;;;;;1.98;1.10;;;23.20;48.00;;;;;;4875155;29;45235;-66
2022/09/16 03:56:52;;;;;;;1.60;1.00;;;23.20;48.00;;;;;;4893428;28;44854;-64
2022/09/16 03:59:18;;;;;;;1.20;0.90;;;23.20;48.00;;;;;;4891232;28;45398;-65
2022/09/16 04:01:44;;;;;;;1.95;0.98;;;23.20;47.90;;;;;;4888453;28;45361;-65
2022/09/16 04:04:11;;;;;;;1.63;1.27;;;23.20;47.90;;;;;;4896954;28;45182;-65
2022/09/16 04:06:36;;;;;;;1.30;1.08;;;23.20;47.90;;;;;;4901524;28;44826;-64
2022/09/16 04:09:03;;;;;;;1.10;1.00;;;23.20;48.00;;;;;;4883110;28;45515;-64
2022/09/16 04:11:30;;;;;;;2.00;1.20;;;23.20;48.00;;;;;;4915386;28;46578;-64
2022/09/16 04:13:57;;;;;;;2.47;1.20;;;23.20;48.00;;;;;;4894815;28;45079;-65
2022/09/16 04:16:22;;;;;;;0.77;0.77;;;23.20;48.00;;;;;;4893842;28;45289;-64
2022/09/16 04:18:48;;;;;;;1.35;1.20;;;23.20;47.90;;;;;;4879577;28;45502;-64
2022/09/16 04:21:13;;;;;;;1.05;1.02;;;23.20;47.90;;;;;;4883353;28;46072;-64
2022/09/16 04:23:39;;;;;;;3.67;1.15;;;23.20;47.90;;;;;;4900861;28;45318;-65
2022/09/16 04:26:05;;;;;;;2.05;1.17;;;23.20;47.90;;;;;;4921033;28;45542;-65
2022/09/16 04:28:32;;;;;;;1.20;1.10;;;23.20;47.80;;;;;;4892088;28;45299;-63
2022/09/16 04:31:02;;;;;;;1.80;1.20;;;23.20;47.80;;;;;;4881150;28;46387;-65
2022/09/16 04:33:29;;;;;;;1.17;1.00;;;23.20;47.80;;;;;;4880132;28;45158;-64
2022/09/16 04:36:01;;;;;;;1.08;1.00;;;23.20;47.70;;;;;;4897210;28;45009;-63
2022/09/16 04:38:26;;;;;;;1.13;1.02;;;23.20;47.70;;;;;;4909901;28;45565;-65
2022/09/16 04:40:53;;;;;;;1.20;1.10;;;23.30;47.80;;;;;;4909852;28;46482;-65
2022/09/16 04:43:18;;;;;;;1.70;1.20;;;23.20;47.70;;;;;;4894591;28;45554;-63
2022/09/16 04:45:44;;;;;;;1.30;1.20;;;23.20;47.70;;;;;;4898068;28;45150;-65
2022/09/16 04:48:09;;;;;;;1.63;1.23;;;23.20;47.80;;;;;;4915549;28;45479;-65
2022/09/16 04:50:35;;;;;;;1.00;0.98;;;23.20;47.80;;;;;;4894542;28;45668;-65
2022/09/16 04:53:00;;;;;;;1.48;1.30;;;23.20;47.80;;;;;;4914014;28;44820;-65
2022/09/16 04:55:26;;;;;;;1.88;1.10;;;23.20;47.80;;;;;;4910272;28;45328;-65
2022/09/16 04:57:52;;;;;;;1.60;1.38;;;23.20;47.80;;;;;;4895344;28;45352;-64
2022/09/16 05:00:17;;;;;;;1.10;1.00;;;23.20;47.80;;;;;;4913710;28;45472;-65
2022/09/16 05:02:44;;;;;;;1.10;1.00;;;23.20;47.80;;;;;;4913116;28;45280;-64
2022/09/16 05:05:10;;;;;;;1.23;1.10;;;23.20;47.80;;;;;;4914746;28;45308;-64
2022/09/16 05:07:36;;;;;;;1.38;1.10;;;23.20;47.80;;;;;;4898726;28;45432;-65
2022/09/16 05:10:02;;;;;;;1.10;1.00;;;23.20;47.70;;;;;;4911296;28;45175;-65
2022/09/16 05:12:27;;;;;;;1.20;1.10;;;23.20;47.80;;;;;;4884143;28;44692;-65
2022/09/16 05:14:53;;;;;;;1.48;1.10;;;23.20;47.70;;;;;;4918836;28;45121;-65
2022/09/16 05:17:18;;;;;;;1.45;1.17;;;23.20;47.70;;;;;;4917747;28;45534;-65
2022/09/16 05:19:44;;;;;;;1.17;0.93;;;23.20;47.70;;;;;;4915842;28;46268;-65
2022/09/16 05:22:10;;;;;;;1.48;1.17;;;23.20;47.70;;;;;;4917935;28;45155;-65
2022/09/16 05:24:35;;;;;;;1.40;1.30;;;23.10;47.70;;;;;;4916731;28;45209;-65
2022/09/16 05:27:01;;;;;;;1.45;1.17;;;23.10;47.80;;;;;;4916087;28;45372;-64
2022/09/16 05:29:26;;;;;;;1.20;1.00;;;23.20;47.70;;;;;;4885128;28;45676;-65
2022/09/16 05:31:52;;;;;;;1.33;1.10;;;23.10;47.60;;;;;;4913735;28;45459;-64
2022/09/16 05:34:22;;;;;;;2.03;1.20;;;23.10;47.70;;;;;;4880161;28;45243;-64
2022/09/16 05:36:49;;;;;;;2.22;1.23;;;23.10;47.60;;;;;;4915659;28;45150;-64
2022/09/16 05:39:17;;;;;;;1.67;1.00;;;23.10;47.70;;;;;;4869934;28;47057;-65
2022/09/16 05:41:46;;;;;;;1.35;1.08;;;23.10;47.60;;;;;;4910692;28;45223;-64
2022/09/16 05:44:11;;;;;;;1.20;1.10;;;23.10;47.70;;;;;;4884719;28;45089;-64
2022/09/16 05:46:39;;;;;;;1.20;1.00;;;23.10;47.60;;;;;;4897174;28;45256;-65
2022/09/16 05:49:05;;;;;;;1.25;1.05;;;23.10;47.60;;;;;;4899602;28;47010;-65
2022/09/16 05:51:30;;;;;;;1.30;1.10;;;23.10;47.60;;;;;;4898271;28;44646;-64
2022/09/16 05:53:56;;;;;;;1.02;0.93;;;23.10;47.60;;;;;;4912373;28;44643;-65
2022/09/16 05:56:24;;;;;;;1.00;0.95;;;23.10;47.60;;;;;;4881294;28;45505;-63
2022/09/16 05:58:50;;;;;;;;;;;23.10;47.60;;;;;;4901135;28;46546;-64
2022/09/16 06:01:17;;;;;;;1.08;0.82;;;23.10;47.40;;;;;;4917309;28;44870;-64
2022/09/16 06:03:44;;;;;;;1.20;1.08;;;23.10;47.50;;;;;;4873067;28;45356;-64
2022/09/16 06:06:29;;;;;;;3.45;1.27;;;23.10;47.60;;;;;;4908645;28;45822;-64
2022/09/16 06:09:23;;;;;;;1.02;0.93;;;23.10;47.50;;;;;;4897841;28;46794;-64
2022/09/16 06:11:50;;;;;;;1.13;1.00;;;23.10;47.50;;;;;;4874532;28;45018;-64
2022/09/16 06:14:16;;;;;;;1.55;1.30;;;23.10;47.50;;;;;;4883626;28;45638;-63
2022/09/16 06:16:42;;;;;;;1.73;1.33;;;23.10;47.50;;;;;;4883157;28;45577;-62
2022/09/16 06:19:11;;;;;;;1.42;0.98;;;23.10;47.50;;;;;;4861311;28;46786;-64
2022/09/16 06:21:37;;;;;;;1.40;1.17;;;23.10;47.50;;;;;;4916055;28;44740;-64
2022/09/16 06:24:07;;;;;;;1.20;1.10;;;23.10;47.50;;;;;;4912625;28;45209;-64
2022/09/16 06:26:32;;;;;;;2.00;0.95;;;23.10;47.50;;;;;;4910736;28;45456;-63
2022/09/16 06:28:58;;;;;;;1.55;0.90;;;23.20;47.40;;;;;;4897065;28;45259;-64
2022/09/16 06:31:25;;;;;;;2.63;1.10;;;23.20;47.40;;;;;;4900271;28;45278;-64
2022/09/16 06:33:51;;;;;;;0.95;0.85;;;23.20;47.40;;;;;;4913022;28;45697;-64
2022/09/16 06:36:21;;;;;;;2.42;1.20;;;23.20;47.40;;;;;;4868677;28;45440;-64
2022/09/16 06:38:47;;;;;;;1.52;1.10;;;23.20;47.40;;;;;;4915664;28;45591;-63
2022/09/16 06:41:13;;;;;;;1.63;1.25;;;23.20;47.40;;;;;;4896625;28;45426;-64
2022/09/16 06:43:39;;;;;;;1.23;1.13;;;23.20;47.40;;;;;;4897508;28;45284;-64
2022/09/16 06:46:12;;;;;;;1.25;1.00;;;23.20;47.40;;;;;;4915770;28;45624;-64
2022/09/16 06:48:38;;;;;;;1.10;0.90;;;23.20;47.30;;;;;;4912815;28;45364;-62
2022/09/16 06:51:05;;;;;;;2.10;1.05;;;23.20;47.30;;;;;;4897961;28;45174;-64
2022/09/16 06:53:31;;;;;;;1.40;1.00;;;23.20;47.20;;;;;;4864852;28;45387;-63
2022/09/16 06:56:00;;;;;;;1.63;1.15;;;23.30;47.30;;;;;;4914958;28;45489;-63
2022/09/16 06:58:28;;;;;;;1.20;1.10;;;23.20;47.30;;;;;;4899094;28;45544;-64
2022/09/16 07:00:54;;;;;;;1.63;1.13;;;23.30;47.30;;;;;;4911260;28;45620;-64
2022/09/16 07:03:20;;;;;;;1.90;1.20;;;23.30;47.30;;;;;;4899581;28;45287;-64
2022/09/16 07:06:00;;;;;;;2.40;0.70;;;23.30;47.30;;;;;;4917951;28;45301;-64
2022/09/16 07:08:27;;;;;;;0.85;0.80;;;23.30;47.20;;;;;;4913387;28;46375;-65
2022/09/16 07:11:03;;;;;;;1.20;1.00;;;23.30;47.20;;;;;;4909053;28;45303;-64
2022/09/16 07:13:29;;;;;;;2.25;1.13;;;23.30;47.10;;;;;;4884222;28;45312;-63
2022/09/16 07:15:59;;;;;;;1.23;0.82;;;23.30;47.20;;;;;;4916609;28;45155;-64
2022/09/16 07:18:24;;;;;;;1.13;0.85;;;23.30;47.10;;;;;;4880173;28;45292;-64
2022/09/16 07:20:50;;;;;;;1.23;1.00;;;23.30;47.20;;;;;;4901677;28;45150;-63
2022/09/16 07:23:15;;;;;;;1.33;0.85;;;23.30;47.20;;;;;;4914869;28;45139;-63
2022/09/16 07:25:41;;;;;;;1.10;1.00;;;23.30;47.10;;;;;;4898456;28;44842;-64
2022/09/16 07:28:06;;;;;;;1.15;1.02;;;23.30;47.10;;;;;;4914650;28;45285;-64
2022/09/16 07:30:33;;;;;;;1.13;0.90;;;23.30;47.10;;;;;;4896148;28;45270;-63
2022/09/16 07:32:59;;;;;;;0.90;0.90;;;23.30;47.10;;;;;;4911737;28;45413;-64
2022/09/16 07:35:24;;;;;;;1.05;0.90;;;23.30;47.10;;;;;;4897188;28;45537;-63
2022/09/16 07:37:50;;;;;;;1.50;1.00;;;23.30;47.20;;;;;;4914892;28;45481;-63
2022/09/16 07:40:16;;;;;;;1.88;1.10;;;23.30;47.10;;;;;;4914757;28;45244;-64
2022/09/16 07:42:41;;;;;;;1.13;1.00;;;23.40;47.10;;;;;;4880109;28;44621;-64
2022/09/16 07:45:07;;;;;;;1.10;1.00;;;23.40;47.10;;;;;;4898958;28;44689;-63
2022/09/16 07:47:33;;;;;;;0.80;0.68;;;23.40;47.10;;;;;;4894808;28;45541;-63
2022/09/16 07:49:59;;;;;;;1.25;0.80;;;23.40;47.10;;;;;;4914720;28;46068;-64
2022/09/16 07:52:28;;;;;;;1.52;1.10;;;23.40;47.10;;;;;;4893198;28;45277;-63
2022/09/16 07:54:54;;;;;;;0.98;0.98;;;23.40;47.10;;;;;;4912425;28;45067;-64
2022/09/16 07:57:20;;;;;;;0.80;0.80;;;23.40;47.10;;;;;;4914414;28;46255;-63
2022/09/16 07:59:46;;;;;;;1.35;0.90;;;23.40;47.10;;;;;;4907972;28;45231;-63
2022/09/16 08:02:12;;;;;;;0.85;0.80;;;23.40;47.00;;;;;;4915219;28;45441;-63
2022/09/16 08:04:38;;;;;;;1.40;1.00;;;23.40;47.00;;;;;;4898872;28;45050;-63
2022/09/16 08:07:04;;;;;;;1.08;0.95;;;23.40;47.00;;;;;;4913273;28;45449;-63
2022/09/16 08:09:30;;;;;;;1.90;0.95;;;23.40;47.00;;;;;;4870493;28;44789;-63
2022/09/16 08:11:55;;;;;;;1.05;0.82;;;23.40;47.00;;;;;;4915431;28;45125;-62
2022/09/16 08:14:21;;;;;;;2.65;1.08;;;23.40;47.00;;;;;;4897581;28;45198;-63
2022/09/16 08:16:50;;;;;;;1.10;0.88;;;23.40;46.90;;;;;;4914207;28;45268;-63
2022/09/16 08:19:16;;;;;;;1.67;0.88;;;23.40;46.90;;;;;;4915792;28;45164;-60
2022/09/16 08:21:41;;;;;;;0.90;0.80;;;23.40;46.90;;;;;;4898613;28;45144;-63
2022/09/16 08:24:08;;;;;;;1.27;1.17;;;23.40;46.80;;;;;;4916807;28;46154;-62
2022/09/16 08:26:33;;;;;;;1.27;0.70;;;23.50;46.90;;;;;;4866455;28;45619;-63
2022/09/16 08:28:59;;;;;;;1.52;1.02;;;23.40;46.90;;;;;;4912721;28;45178;-63
2022/09/16 08:31:24;;;;;;;0.70;0.70;;;23.40;46.90;;;;;;4881868;28;45178;-63
2022/09/16 08:33:50;;;;;;;3.15;1.00;;;23.40;46.80;;;;;;4914291;28;45447;-62
2022/09/16 08:36:18;;;;;;;0.93;0.82;;;23.40;46.90;;;;;;4897800;28;46172;-63
2022/09/16 08:38:44;;;;;;;1.60;0.90;;;23.50;46.80;;;;;;4881504;28;45431;-62
2022/09/16 08:41:24;;;;;;;1.73;0.90;;;23.40;46.70;;;;;;4916983;28;45546;-64
2022/09/16 08:44:07;;;;;;;0.80;0.70;;;23.40;46.70;;;;;;4915963;28;45734;-64
2022/09/16 08:47:07;;;;;;;0.70;0.60;;;23.50;46.70;;;;;;4884594;28;45422;-65
2022/09/16 08:49:38;;;;;;;1.67;1.00;;;23.50;46.60;;;;;;4898337;28;45233;-64
2022/09/16 08:52:17;;;;;;;1.13;0.80;;;23.40;46.70;;;;;;4888716;28;45438;-65
2022/09/16 08:54:48;;;;;;;1.83;0.80;;;23.50;46.80;;;;;;4885902;28;45342;-64
2022/09/16 08:57:16;;;;;;;0.80;0.80;;;23.50;46.70;;;;;;4932096;28;46245;-64
2022/09/16 08:59:47;;;;;;;1.20;0.93;;;23.50;46.70;;;;;;4887165;28;45223;-64
2022/09/16 09:02:27;;;;;;;0.80;0.80;;;23.50;46.70;;;;;;4915598;28;45337;-62
2022/09/16 09:04:52;;;;;;;2.17;0.90;;;23.50;46.50;;;;;;4917975;28;44904;-63
2022/09/16 09:07:50;;;;;;;1.83;0.77;;;23.50;46.60;;;;;;4919014;28;45320;-65
2022/09/16 09:10:52;;;;;;;1.88;0.88;;;23.50;46.40;;;;;;4898592;28;45494;-64
2022/09/16 09:13:33;;;;;;;3.80;1.00;;;23.50;46.50;;;;;;4896115;28;45440;-65
2022/09/16 09:16:20;;;;;;;1.95;0.77;;;23.50;46.50;;;;;;4918142;28;45150;-66
2022/09/16 09:19:01;;;;;;;0.80;0.80;;;23.50;46.60;;;;;;4898177;28;45656;-63
2022/09/16 09:21:38;;;;;;;1.45;0.88;;;23.50;46.40;;;;;;4915263;28;45206;-64
2022/09/16 09:24:27;;;;;;;1.27;0.82;;;23.60;46.60;;;;;;4913289;28;45518;-65
2022/09/16 09:27:14;;;;;;;2.60;0.65;;;23.60;46.40;;;;;;4896974;28;45334;-65
2022/09/16 09:30:07;;;;;;;0.93;0.80;;;23.60;46.50;;;;;;4869647;28;45355;-65
2022/09/16 09:32:56;;;;;;;2.17;0.90;;;23.60;46.40;;;;;;4900267;28;45104;-65
2022/09/16 09:35:33;;;;;;;0.98;0.77;;;23.60;46.40;;;;;;4912164;28;45476;-65
2022/09/16 09:38:20;;;;;;;1.60;0.75;;;23.60;46.50;;;;;;4920319;28;45162;-65
2022/09/16 09:40:57;;;;;;;1.20;0.77;;;23.60;46.40;;;;;;4883124;28;47088;-65
2022/09/16 09:43:34;;;;;;;1.00;0.85;;;23.60;46.30;;;;;;4890930;28;45697;-65
2022/09/16 09:46:22;;;;;;;1.38;1.00;;;23.60;46.40;;;;;;4913039;28;46097;-65
2022/09/16 09:48:51;;;;;;;1.15;0.90;;;23.60;46.20;;;;;;4890909;28;45315;-63
2022/09/16 09:51:38;;;;;;;1.88;0.82;;;23.60;46.30;;;;;;4897904;28;45195;-63
2022/09/16 09:54:26;;;;;;;0.70;0.70;;;23.60;46.20;;;;;;4900291;28;44696;-62
2022/09/16 09:57:31;;;;;;;2.90;0.70;;;23.60;46.20;;;;;;4897000;28;45363;-62
2022/09/16 10:00:10;;;;;;;1.08;0.90;;;23.60;46.20;;;;;;4878489;28;45683;-62
2022/09/16 10:02:38;;;;;;;0.70;0.70;;;23.60;46.30;;;;;;4898488;28;45382;-62
2022/09/16 10:05:06;;;;;;;1.73;0.90;;;23.60;46.30;;;;;;4900241;28;45478;-63
2022/09/16 10:07:32;;;;;;;1.08;0.90;;;23.70;46.30;;;;;;4900011;28;45995;-62
2022/09/16 10:10:10;;;;;;;1.10;0.75;;;23.70;46.30;;;;;;4898587;28;45311;-63
2022/09/16 10:12:35;;;;;;;3.38;1.02;;;23.70;46.20;;;;;;4884113;28;45097;-62
2022/09/16 10:15:01;;;;;;;0.98;0.63;;;23.70;46.20;;;;;;4915526;28;45308;-62
2022/09/16 10:17:30;;;;;;;0.50;0.50;;;23.70;46.20;;;;;;4886734;28;45439;-63
2022/09/16 10:20:00;;;;;;;1.60;0.77;;;23.70;46.10;;;;;;4895679;28;45554;-64
2022/09/16 10:22:30;;;;;;;1.02;0.70;;;23.70;46.10;;;;;;4912798;28;46517;-64
2022/09/16 10:24:58;;;;;;;1.05;0.85;;;23.70;46.10;;;;;;4912343;28;44668;-64
2022/09/16 10:27:29;;;;;;;1.15;0.70;;;23.80;46.20;;;;;;4910349;28;45396;-64
2022/09/16 10:30:07;;;;;;;0.70;0.68;;;23.70;46.00;;;;;;4911903;28;45578;-65
2022/09/16 10:32:43;;;;;;;1.67;0.77;;;23.70;45.80;;;;;;4914726;28;46465;-64
2022/09/16 10:35:16;;;;;;;3.15;0.80;;;23.70;45.90;;;;;;4900515;28;45511;-64
2022/09/16 10:37:47;;;;;;;2.13;0.80;;;23.70;46.00;;;;;;4883397;28;45285;-64
2022/09/16 10:40:14;;;;;;;0.70;0.68;;;23.70;45.90;;;;;;4914946;28;45333;-64
2022/09/16 10:42:45;;;;;;;0.77;0.77;;;23.70;46.00;;;;;;4912614;28;46999;-64
2022/09/16 10:45:16;;;;;;;1.45;0.63;;;23.70;45.90;;;;;;4929592;28;45348;-64
2022/09/16 10:47:47;;;;;;;0.73;0.73;;;23.70;45.80;;;;;;4913010;28;45543;-64
2022/09/16 10:50:17;;;;;;;0.77;0.60;;;23.70;45.80;;;;;;4910118;28;44632;-63
2022/09/16 10:52:44;;;;;;;0.93;0.80;;;23.70;45.90;;;;;;4913206;28;45420;-64
2022/09/16 10:55:26;;;;;;;0.95;0.70;;;23.70;45.90;;;;;;4894873;28;45843;-63
2022/09/16 10:58:12;;;;;;;0.63;0.60;;;23.70;45.80;;;;;;4902420;28;45270;-64
2022/09/16 11:01:07;;;;;;;1.20;0.80;;;23.70;45.90;;;;;;4896086;28;45363;-64
2022/09/16 11:04:06;;;;;;;1.90;0.80;;;23.60;45.70;;;;;;4893893;28;46779;-64
2022/09/16 11:07:17;;;;;;;1.55;0.82;;;23.60;45.70;;;;;;4894499;28;45211;-63
2022/09/16 11:10:07;;;;;;;0.68;0.68;;;23.60;45.50;;;;;;4902626;28;44936;-63
2022/09/16 11:12:45;;;;;;;0.98;0.80;;;23.60;45.70;;;;;;4895296;28;45586;-63
2022/09/16 11:15:39;;;;;;;1.33;0.73;;;23.60;45.70;;;;;;4900247;28;45134;-62
2022/09/16 11:18:31;;;;;;;0.98;0.80;;;23.60;45.50;;;;;;4900146;28;45037;-62
2022/09/16 11:21:09;;;;;;;0.90;0.90;;;23.60;45.50;;;;;;4907093;28;44851;-62
2022/09/16 11:23:41;;;;;;;0.85;0.80;;;23.60;45.70;;;;;;4915132;28;46317;-62
2022/09/16 11:26:15;;;;;;;2.65;0.82;;;23.60;45.80;;;;;;4916964;28;45369;-63
2022/09/16 11:29:02;;;;;;;1.60;1.00;;;23.60;45.70;;;;;;4916690;28;45231;-63
2022/09/16 11:31:53;;;;;;;1.85;0.73;;;23.70;45.70;;;;;;4906629;28;45270;-63
2022/09/16 11:34:31;;;;;;;1.02;0.80;;;23.60;45.50;;;;;;4897236;28;44889;-62
2022/09/16 11:37:05;;;;;;;3.05;0.80;;;23.70;45.80;;;;;;4913795;28;45966;-63
2022/09/16 11:39:40;;;;;;;1.50;0.77;;;23.60;45.70;;;;;;4916463;28;45269;-63
2022/09/16 11:42:17;;;;;;;2.00;0.80;;;23.70;45.60;;;;;;4910353;28;45452;-62
2022/09/16 11:45:07;;;;;;;0.82;0.65;;;23.70;45.60;;;;;;4916709;28;45238;-63
2022/09/16 11:47:52;;;;;;;1.02;0.90;;;23.70;45.60;;;;;;4916853;28;46649;-62
2022/09/16 11:50:20;;;;;;;0.70;0.70;;;23.70;45.40;;;;;;4910948;28;45251;-61
2022/09/16 11:53:18;;;;;;;0.95;0.60;;;23.70;45.50;;;;;;4916761;28;45384;-62
2022/09/16 11:56:04;;;;;;;1.10;0.65;;;23.70;45.40;;;;;;4888884;28;44891;-63
2022/09/16 11:58:42;;;;;;;1.15;0.65;;;23.70;45.40;;;;;;4884604;28;45586;-62
2022/09/16 12:01:34;;;;;;;1.42;0.70;;;23.70;45.20;;;;;;4915154;28;45261;-62
2022/09/16 12:04:26;;;;;;;0.88;0.60;;;23.70;45.20;;;;;;4888787;28;45290;-63
2022/09/16 12:07:06;;;;;;;1.30;0.73;;;23.70;45.40;;;;;;4913306;28;45314;-63
2022/09/16 12:09:49;;;;;;;1.27;0.60;;;23.70;45.40;;;;;;4884387;28;45675;-63
2022/09/16 12:12:17;;;;;;;1.65;0.55;;;23.80;45.50;;;;;;4908412;28;45847;-63
2022/09/16 12:14:47;;;;;;;1.25;0.95;;;23.80;46.10;;;;;;4924445;28;45575;-63
2022/09/16 12:17:19;;;;;;;1.00;0.73;;;23.80;45.50;;;;;;4894078;28;44887;-63
2022/09/16 12:19:51;;;;;;;1.00;0.63;;;23.80;45.50;;;;;;4890085;28;46118;-62
2022/09/16 12:22:33;;;;;;;2.78;0.90;;;23.80;45.50;;;;;;4907341;28;45461;-63
2022/09/16 12:25:21;;;;;;;1.05;0.75;;;23.80;45.50;;;;;;4909919;28;45350;-63
2022/09/16 12:28:09;;;;;;;0.80;0.68;;;23.80;45.30;;;;;;4898000;28;45163;-63
2022/09/16 12:30:37;;;;;;;1.15;0.60;;;23.80;45.30;;;;;;4860809;28;45714;-63
2022/09/16 12:33:14;;;;;;;2.80;1.10;;;23.80;45.50;;;;;;4911534;28;45402;-63
2022/09/16 12:36:01;;;;;;;1.77;0.80;;;23.80;45.50;;;;;;4877650;28;45595;-63
2022/09/16 12:38:26;;;;;;;0.70;0.60;;;23.80;45.30;;;;;;4893730;28;45279;-63
2022/09/16 12:41:20;;;;;;;0.85;0.70;;;23.80;45.50;;;;;;4925103;28;46177;-64
2022/09/16 12:44:00;;;;;;;1.10;0.60;;;23.80;45.50;;;;;;4903984;28;44850;-63
2022/09/16 12:46:47;;;;;;;1.88;0.80;;;23.80;45.50;;;;;;4910659;28;45330;-64
2022/09/16 12:49:12;;;;;;;1.48;0.70;;;23.90;45.60;;;;;;4899176;28;45390;-63
2022/09/16 12:51:48;;;;;;;0.95;0.82;;;23.80;45.50;;;;;;4910131;28;45045;-63
2022/09/16 12:54:14;;;;;;;2.58;0.98;;;23.90;45.50;;;;;;4908969;28;45899;-63
2022/09/16 12:56:42;;;;;;;1.60;0.93;;;23.90;45.60;;;;;;4909093;28;45431;-63
2022/09/16 12:59:29;;;;;;;1.58;1.00;;;23.90;45.50;;;;;;4907409;28;45047;-62
2022/09/16 13:01:57;;;;;;;0.60;0.60;;;23.90;45.50;;;;;;4907759;28;45562;-65
2022/09/16 13:04:31;;;;;;;1.52;0.85;;;23.90;45.50;;;;;;4905183;28;45434;-65
2022/09/16 13:07:00;;;;;;;0.90;0.60;;;23.90;45.50;;;;;;4877173;28;45538;-65
2022/09/16 13:09:32;;;;;;;1.00;0.73;;;24.00;45.60;;;;;;4894460;28;45424;-65
2022/09/16 13:12:18;;;;;;;1.30;0.57;;;23.90;45.40;;;;;;4897641;28;45419;-64
2022/09/16 13:14:55;;;;;;;1.15;0.82;;;24.00;45.40;;;;;;4865478;28;45443;-65
2022/09/16 13:17:37;;;;;;;0.57;0.55;;;23.90;45.40;;;;;;4877876;28;45549;-65
2022/09/16 13:20:16;;;;;;;0.50;0.50;;;24.00;45.30;;;;;;4890489;28;45223;-65
2022/09/16 13:22:47;;;;;;;0.95;0.77;;;24.00;45.60;;;;;;4891105;28;46234;-63
2022/09/16 13:25:26;;;;;;;1.83;0.77;;;24.00;45.40;;;;;;4880072;28;45323;-65
2022/09/16 13:28:02;;;;;;;3.40;0.70;;;23.90;45.30;;;;;;4909163;28;45099;-64
2022/09/16 13:30:36;;;;;;;0.93;0.70;;;24.00;45.40;;;;;;4898360;28;45082;-65
2022/09/16 13:33:08;;;;;;;1.15;0.60;;;23.90;45.50;;;;;;4913496;28;45505;-65
2022/09/16 13:35:35;;;;;;;2.03;1.00;;;23.90;45.50;;;;;;4897320;28;45567;-65
2022/09/16 13:38:11;;;;;;;1.20;0.70;;;23.90;45.60;;;;;;4895421;28;45828;-65
2022/09/16 13:40:37;;;;;;;1.05;0.88;;;23.90;45.70;;;;;;4881200;28;44946;-65
2022/09/16 13:43:12;;;;;;;2.05;0.82;;;23.90;45.70;;;;;;4893951;28;45608;-64
2022/09/16 13:45:43;;;;;;;1.65;0.95;;;23.90;45.60;;;;;;4896308;28;44993;-64
2022/09/16 13:48:19;;;;;;;2.00;0.88;;;23.90;45.70;;;;;;4907747;28;44908;-65
2022/09/16 13:50:52;;;;;;;0.98;0.55;;;23.90;45.70;;;;;;4882321;28;45003;-65
2022/09/16 13:53:23;;;;;;;1.33;0.80;;;23.80;45.70;;;;;;4881893;28;45558;-65
2022/09/16 13:55:49;;;;;;;0.60;0.60;;;23.80;45.80;;;;;;4879847;28;44736;-64
2022/09/16 13:58:29;;;;;;;2.22;0.70;;;23.80;45.80;;;;;;4897935;28;45508;-65
2022/09/16 14:01:03;;;;;;;1.20;0.82;;;23.80;45.80;;;;;;4922626;28;45270;-65
2022/09/16 14:04:09;;;;;;;1.58;0.65;;;23.80;45.80;;;;;;4915406;28;45613;-64
2022/09/16 14:06:44;;;;;;;0.73;0.60;;;23.80;45.80;;;;;;4914467;28;45470;-65
2022/09/16 14:09:34;;;;;;;0.82;0.60;;;23.80;45.90;;;;;;4910038;28;44854;-64
2022/09/16 14:12:24;;;;;;;0.85;0.68;;;23.80;45.80;;;;;;4897140;28;45498;-65
2022/09/16 14:14:50;;;;;;;0.77;0.63;;;23.80;45.90;;;;;;4899691;28;45726;-65
2022/09/16 14:17:22;;;;;;;1.00;0.70;;;23.80;45.90;;;;;;4881810;28;45352;-65
2022/09/16 14:19:48;;;;;;;0.60;0.60;;;23.80;46.00;;;;;;4867139;28;45562;-65
2022/09/16 14:22:16;;;;;;;0.70;0.52;;;23.80;46.00;;;;;;4916407;28;45169;-64
2022/09/16 14:24:42;;;;;;;1.20;0.80;;;23.80;46.00;;;;;;4878534;28;46332;-65
2022/09/16 14:27:28;;;;;;;0.60;0.50;;;23.80;46.00;;;;;;4912096;28;45158;-65
2022/09/16 14:30:00;;;;;;;1.15;0.63;;;23.80;45.90;;;;;;4881344;28;45165;-64
2022/09/16 14:32:31;;;;;;;1.85;0.80;;;23.80;45.90;;;;;;4880444;28;45618;-65
2022/09/16 14:34:59;;;;;;;1.35;0.70;;;23.70;45.90;;;;;;4892769;28;46125;-64
2022/09/16 14:37:26;;;;;;;1.25;0.75;;;23.80;46.00;;;;;;4878929;28;45591;-65
2022/09/16 14:39:51;;;;;;;1.65;0.80;;;23.80;46.00;;;;;;4894930;28;45174;-65
2022/09/16 14:42:18;;;;;;;1.33;0.90;;;23.70;46.00;;;;;;4882446;28;44619;-64
2022/09/16 14:44:52;;;;;;;1.23;0.80;;;23.80;46.00;;;;;;4865993;28;46307;-65
2022/09/16 14:47:27;;;;;;;1.05;0.80;;;23.80;46.00;;;;;;4895388;28;44790;-64
2022/09/16 14:50:02;;;;;;;0.70;0.65;;;23.70;46.00;;;;;;4913506;28;45435;-65
2022/09/16 14:52:30;;;;;;;1.55;0.60;;;23.70;45.90;;;;;;4894780;28;45446;-65
2022/09/16 14:54:56;;;;;;;2.65;0.80;;;23.70;46.00;;;;;;4907381;28;45864;-65
2022/09/16 14:57:26;;;;;;;1.55;0.70;;;23.70;46.10;;;;;;4908976;28;45202;-63
2022/09/16 14:59:53;;;;;;;1.45;0.60;;;23.70;46.00;;;;;;4909106;28;45151;-65
2022/09/16 15:02:34;;;;;;;1.00;0.70;;;23.70;46.00;;;;;;4881655;28;45581;-64
2022/09/16 15:05:15;;;;;;;1.20;0.90;;;23.70;46.00;;;;;;4909882;28;47327;-64
2022/09/16 15:07:41;;;;;;;3.22;0.75;;;23.70;46.00;;;;;;4877885;28;45604;-64
2022/09/16 15:10:21;;;;;;;0.88;0.60;;;23.70;46.10;;;;;;4879795;28;45583;-65
2022/09/16 15:12:54;;;;;;;1.48;0.80;;;23.70;46.00;;;;;;4864758;28;45484;-65
2022/09/16 15:15:24;;;;;;;1.70;0.80;;;23.70;46.10;;;;;;4878230;28;46467;-65
2022/09/16 15:17:56;;;;;;;2.67;1.15;;;23.70;46.10;;;;;;4881951;28;45160;-64
2022/09/16 15:20:23;;;;;;;1.15;0.80;;;23.70;46.10;;;;;;4911300;28;45349;-65
2022/09/16 15:22:48;;;;;;;3.70;1.10;;;23.70;46.10;;;;;;4908663;28;45183;-65
2022/09/16 15:25:24;;;;;;;1.17;1.08;;;23.70;46.10;;;;;;4893615;28;45467;-65
2022/09/16 15:27:50;;;;;;;2.38;1.00;;;23.70;46.00;;;;;;4906705;28;46024;-64
2022/09/16 15:30:24;;;;;;;1.45;1.00;;;23.70;46.10;;;;;;4896772;28;44727;-64
2022/09/16 15:32:50;;;;;;;1.42;0.82;;;23.70;46.10;;;;;;4893936;28;45562;-65
2022/09/16 15:35:26;;;;;;;1.60;0.80;;;23.70;46.10;;;;;;4914669;28;45710;-61
2022/09/16 15:37:52;;;;;;;1.55;0.85;;;23.70;46.00;;;;;;4904790;28;45389;-65
2022/09/16 15:40:28;;;;;;;0.80;0.80;;;23.60;46.10;;;;;;4890819;28;45554;-64
2022/09/16 15:43:17;;;;;;;1.23;0.80;;;23.60;46.10;;;;;;4886590;28;45328;-65
2022/09/16 15:45:44;;;;;;;2.13;0.90;;;23.60;46.00;;;;;;4904842;28;45623;-64
2022/09/16 15:48:18;;;;;;;0.80;0.73;;;23.60;46.10;;;;;;4892574;28;45157;-64
2022/09/16 15:50:55;;;;;;;1.13;0.80;;;23.60;46.10;;;;;;4878053;28;45269;-64
2022/09/16 15:53:30;;;;;;;0.75;0.70;;;23.60;46.10;;;;;;4876004;28;45429;-65
2022/09/16 15:56:07;;;;;;;1.25;0.82;;;23.60;46.10;;;;;;4907662;28;45476;-64
2022/09/16 15:58:42;;;;;;;5.15;0.70;;;23.60;46.10;;;;;;4860272;28;45368;-62
2022/09/16 16:01:12;;;;;;;1.17;0.80;;;23.60;46.00;;;;;;4904026;28;45785;-65
2022/09/16 16:03:46;;;;;;;1.10;0.90;;;23.60;46.10;;;;;;4891188;28;45655;-65
2022/09/16 16:06:12;;;;;;;1.92;0.77;;;23.60;46.10;;;;;;4909931;28;45480;-64
2022/09/16 16:08:49;;;;;;;1.60;0.80;;;23.60;46.20;;;;;;4876868;28;44895;-65
2022/09/16 16:11:19;;;;;;;1.23;0.82;;;23.60;46.10;;;;;;4878110;28;45208;-65
2022/09/16 16:13:45;;;;;;;1.77;0.80;;;23.60;46.10;;;;;;4889984;28;45186;-65
2022/09/16 16:16:11;;;;;;;2.20;1.00;;;23.60;46.00;;;;;;4891733;28;46826;-65